sensor_id;sensor_type;location;lat;lon;timestamp;P1;durP1;ratioP1;P2;durP2;ratioP2
595;SDS011;19946;49.306;11.350;2022-11-20T00:02:35;58.80;;;56.20;;
595;SDS011;19946;49.306;11.350;2022-11-20T00:09:58;71.53;;;68.63;;
595;SDS011;19946;49.306;11.350;2022-11-20T00:16:22;54.67;;;52.27;;
595;SDS011;19946;49.306;11.350;2022-11-20T00:19:29;76.50;;;73.33;;
595;SDS011;19946;49.306;11.350;2022-11-20T00:22:30;75.80;;;72.70;;
595;SDS011;19946;49.306;11.350;2022-11-20T00:25:31;63.50;;;60.80;;
595;SDS011;19946;49.306;11.350;2022-11-20T00:28:35;97.83;;;94.03;;
595;SDS011;19946;49.306;11.350;2022-11-20T00:31:36;159.13;;;153.40;;
595;SDS011;19946;49.306;11.350;2022-11-20T00:34:36;150.63;;;145.23;;
595;SDS011;19946;49.306;11.350;2022-11-20T00:37:36;143.73;;;138.57;;
595;SDS011;19946;49.306;11.350;2022-11-20T00:40:37;160.63;;;154.93;;
595;SDS011;19946;49.306;11.350;2022-11-20T00:43:37;146.23;;;141.03;;
595;SDS011;19946;49.306;11.350;2022-11-20T00:50:02;147.53;;;142.30;;
595;SDS011;19946;49.306;11.350;2022-11-20T02:06:46;95.47;;;92.17;;
595;SDS011;19946;49.306;11.350;2022-11-20T03:22:04;135.43;;;131.00;;
595;SDS011;19946;49.306;11.350;2022-11-20T03:25:04;154.37;;;149.47;;
595;SDS011;19946;49.306;11.350;2022-11-20T03:35:08;196.30;;;190.20;;
595;SDS011;19946;49.306;11.350;2022-11-20T03:41:51;226.50;;;219.60;;
595;SDS011;19946;49.306;11.350;2022-11-20T03:44:51;246.20;;;238.80;;
595;SDS011;19946;49.306;11.350;2022-11-20T03:55:13;285.10;;;276.47;;
595;SDS011;19946;49.306;11.350;2022-11-20T03:58:13;264.30;;;256.30;;
595;SDS011;19946;49.306;11.350;2022-11-20T04:04:30;299.47;;;290.33;;
595;SDS011;19946;49.306;11.350;2022-11-20T04:07:30;334.87;;;324.43;;
595;SDS011;19946;49.306;11.350;2022-11-20T04:10:30;339.97;;;329.13;;
595;SDS011;19946;49.306;11.350;2022-11-20T04:16:46;344.77;;;333.37;;
595;SDS011;19946;49.306;11.350;2022-11-20T04:19:47;352.50;;;340.90;;
595;SDS011;19946;49.306;11.350;2022-11-20T04:22:54;360.23;;;348.23;;
595;SDS011;19946;49.306;11.350;2022-11-20T04:25:54;348.20;;;336.60;;
595;SDS011;19946;49.306;11.350;2022-11-20T04:29:04;375.27;;;362.27;;
595;SDS011;19946;49.306;11.350;2022-11-20T04:32:05;394.20;;;380.30;;
595;SDS011;19946;49.306;11.350;2022-11-20T04:35:05;377.43;;;364.07;;
595;SDS011;19946;49.306;11.350;2022-11-20T04:38:08;382.90;;;369.37;;
595;SDS011;19946;49.306;11.350;2022-11-20T04:41:10;408.90;;;394.83;;
595;SDS011;19946;49.306;11.350;2022-11-20T04:44:14;408.70;;;394.30;;
595;SDS011;19946;49.306;11.350;2022-11-20T04:47:29;440.63;;;425.07;;
595;SDS011;19946;49.306;11.350;2022-11-20T04:50:30;487.23;;;470.43;;
595;SDS011;19946;49.306;11.350;2022-11-20T04:57:21;481.80;;;465.17;;
595;SDS011;19946;49.306;11.350;2022-11-20T05:00:28;416.63;;;401.93;;
595;SDS011;19946;49.306;11.350;2022-11-20T05:03:28;473.80;;;457.03;;
595;SDS011;19946;49.306;11.350;2022-11-20T05:06:29;412.30;;;397.40;;
595;SDS011;19946;49.306;11.350;2022-11-20T05:09:29;464.37;;;448.20;;
595;SDS011;19946;49.306;11.350;2022-11-20T05:12:31;443.00;;;426.80;;
595;SDS011;19946;49.306;11.350;2022-11-20T05:15:32;378.50;;;364.50;;
595;SDS011;19946;49.306;11.350;2022-11-20T05:18:33;339.13;;;326.93;;
595;SDS011;19946;49.306;11.350;2022-11-20T05:21:35;332.80;;;321.17;;
595;SDS011;19946;49.306;11.350;2022-11-20T05:24:35;368.07;;;355.07;;
595;SDS011;19946;49.306;11.350;2022-11-20T05:27:36;364.23;;;351.73;;
595;SDS011;19946;49.306;11.350;2022-11-20T05:30:36;324.27;;;312.93;;
595;SDS011;19946;49.306;11.350;2022-11-20T05:33:38;336.93;;;324.83;;
595;SDS011;19946;49.306;11.350;2022-11-20T05:36:40;355.20;;;342.63;;
595;SDS011;19946;49.306;11.350;2022-11-20T05:39:40;302.07;;;291.77;;
595;SDS011;19946;49.306;11.350;2022-11-20T05:42:40;330.03;;;318.47;;
595;SDS011;19946;49.306;11.350;2022-11-20T05:45:51;339.37;;;327.47;;
595;SDS011;19946;49.306;11.350;2022-11-20T05:49:05;380.13;;;366.33;;
595;SDS011;19946;49.306;11.350;2022-11-20T05:52:05;409.03;;;394.83;;
595;SDS011;19946;49.306;11.350;2022-11-20T05:55:06;342.80;;;331.40;;
595;SDS011;19946;49.306;11.350;2022-11-20T05:58:07;363.93;;;351.63;;
595;SDS011;19946;49.306;11.350;2022-11-20T06:04:10;445.60;;;429.80;;
595;SDS011;19946;49.306;11.350;2022-11-20T06:07:15;499.87;;;481.73;;
595;SDS011;19946;49.306;11.350;2022-11-20T06:10:16;375.00;;;361.13;;
595;SDS011;19946;49.306;11.350;2022-11-20T06:13:16;413.30;;;397.90;;
595;SDS011;19946;49.306;11.350;2022-11-20T06:16:18;414.40;;;398.77;;
595;SDS011;19946;49.306;11.350;2022-11-20T06:22:42;490.23;;;471.97;;
595;SDS011;19946;49.306;11.350;2022-11-20T06:25:43;450.87;;;433.47;;
595;SDS011;19946;49.306;11.350;2022-11-20T06:28:43;369.63;;;355.53;;
595;SDS011;19946;49.306;11.350;2022-11-20T06:31:49;399.03;;;383.80;;
595;SDS011;19946;49.306;11.350;2022-11-20T06:34:49;433.80;;;417.10;;
595;SDS011;19946;49.306;11.350;2022-11-20T06:37:50;417.30;;;401.23;;
595;SDS011;19946;49.306;11.350;2022-11-20T06:40:50;427.90;;;411.33;;
595;SDS011;19946;49.306;11.350;2022-11-20T06:47:01;541.53;;;520.93;;
595;SDS011;19946;49.306;11.350;2022-11-20T06:50:01;573.37;;;551.73;;
595;SDS011;19946;49.306;11.350;2022-11-20T06:53:03;586.17;;;564.13;;
595;SDS011;19946;49.306;11.350;2022-11-20T06:56:04;541.37;;;520.70;;
595;SDS011;19946;49.306;11.350;2022-11-20T06:59:05;703.03;;;676.97;;
595;SDS011;19946;49.306;11.350;2022-11-20T07:02:11;689.87;;;664.63;;
595;SDS011;19946;49.306;11.350;2022-11-20T07:12:51;626.93;;;603.93;;
595;SDS011;19946;49.306;11.350;2022-11-20T07:15:54;674.47;;;649.57;;
595;SDS011;19946;49.306;11.350;2022-11-20T07:18:55;633.20;;;609.80;;
595;SDS011;19946;49.306;11.350;2022-11-20T07:21:55;603.37;;;581.10;;
595;SDS011;19946;49.306;11.350;2022-11-20T07:24:55;610.43;;;588.30;;
595;SDS011;19946;49.306;11.350;2022-11-20T07:27:59;658.80;;;634.80;;
595;SDS011;19946;49.306;11.350;2022-11-20T07:31:18;630.20;;;607.40;;
595;SDS011;19946;49.306;11.350;2022-11-20T07:34:18;637.87;;;614.57;;
595;SDS011;19946;49.306;11.350;2022-11-20T07:37:20;653.07;;;629.13;;
595;SDS011;19946;49.306;11.350;2022-11-20T07:40:20;651.90;;;628.40;;
595;SDS011;19946;49.306;11.350;2022-11-20T07:43:27;690.27;;;664.90;;
595;SDS011;19946;49.306;11.350;2022-11-20T07:46:27;511.63;;;493.00;;
595;SDS011;19946;49.306;11.350;2022-11-20T07:49:28;442.97;;;426.60;;
595;SDS011;19946;49.306;11.350;2022-11-20T07:52:35;539.63;;;520.07;;
595;SDS011;19946;49.306;11.350;2022-11-20T07:55:37;573.87;;;553.43;;
595;SDS011;19946;49.306;11.350;2022-11-20T07:58:38;403.70;;;388.90;;
595;SDS011;19946;49.306;11.350;2022-11-20T08:01:54;395.87;;;381.97;;
595;SDS011;19946;49.306;11.350;2022-11-20T08:04:55;566.50;;;546.87;;
595;SDS011;19946;49.306;11.350;2022-11-20T08:07:57;496.87;;;479.67;;
595;SDS011;19946;49.306;11.350;2022-11-20T08:11:00;444.23;;;428.43;;
595;SDS011;19946;49.306;11.350;2022-11-20T08:14:20;452.57;;;435.90;;
595;SDS011;19946;49.306;11.350;2022-11-20T08:17:27;525.87;;;507.10;;
595;SDS011;19946;49.306;11.350;2022-11-20T08:20:33;511.50;;;493.17;;
595;SDS011;19946;49.306;11.350;2022-11-20T08:23:37;456.60;;;439.80;;
595;SDS011;19946;49.306;11.350;2022-11-20T08:26:39;364.00;;;350.23;;
595;SDS011;19946;49.306;11.350;2022-11-20T08:29:44;357.20;;;343.80;;
595;SDS011;19946;49.306;11.350;2022-11-20T08:32:47;371.83;;;357.43;;
595;SDS011;19946;49.306;11.350;2022-11-20T08:35:57;519.10;;;499.63;;
595;SDS011;19946;49.306;11.350;2022-11-20T08:39:11;381.87;;;367.20;;
595;SDS011;19946;49.306;11.350;2022-11-20T08:42:13;395.00;;;379.83;;
595;SDS011;19946;49.306;11.350;2022-11-20T08:45:13;230.83;;;222.10;;
595;SDS011;19946;49.306;11.350;2022-11-20T08:48:14;228.90;;;220.40;;
595;SDS011;19946;49.306;11.350;2022-11-20T08:51:24;253.10;;;243.63;;
595;SDS011;19946;49.306;11.350;2022-11-20T08:54:25;378.00;;;363.90;;
595;SDS011;19946;49.306;11.350;2022-11-20T08:57:25;430.37;;;414.77;;
595;SDS011;19946;49.306;11.350;2022-11-20T09:00:26;493.80;;;476.07;;
595;SDS011;19946;49.306;11.350;2022-11-20T09:03:27;477.43;;;460.23;;
595;SDS011;19946;49.306;11.350;2022-11-20T09:06:27;504.60;;;486.70;;
595;SDS011;19946;49.306;11.350;2022-11-20T09:09:29;500.07;;;482.37;;
595;SDS011;19946;49.306;11.350;2022-11-20T09:12:29;489.40;;;471.90;;
595;SDS011;19946;49.306;11.350;2022-11-20T09:15:31;556.90;;;536.67;;
595;SDS011;19946;49.306;11.350;2022-11-20T09:25:37;380.23;;;367.23;;
595;SDS011;19946;49.306;11.350;2022-11-20T09:28:37;428.37;;;413.47;;
595;SDS011;19946;49.306;11.350;2022-11-20T09:31:47;454.97;;;439.17;;
595;SDS011;19946;49.306;11.350;2022-11-20T09:34:49;472.47;;;455.77;;
595;SDS011;19946;49.306;11.350;2022-11-20T09:37:50;485.73;;;468.13;;
595;SDS011;19946;49.306;11.350;2022-11-20T09:47:41;344.90;;;331.40;;
595;SDS011;19946;49.306;11.350;2022-11-20T09:54:09;492.37;;;475.47;;
595;SDS011;19946;49.306;11.350;2022-11-20T09:57:24;440.93;;;425.90;;
595;SDS011;19946;49.306;11.350;2022-11-20T10:01:00;483.70;;;467.30;;
595;SDS011;19946;49.306;11.350;2022-11-20T10:04:16;492.07;;;474.90;;
595;SDS011;19946;49.306;11.350;2022-11-20T10:11:04;445.37;;;429.47;;
595;SDS011;19946;49.306;11.350;2022-11-20T10:31:54;293.27;;;283.17;;
595;SDS011;19946;49.306;11.350;2022-11-20T10:35:14;304.90;;;294.90;;
595;SDS011;19946;49.306;11.350;2022-11-20T10:38:43;279.13;;;269.80;;
595;SDS011;19946;49.306;11.350;2022-11-20T10:52:21;264.90;;;255.93;;
595;SDS011;19946;49.306;11.350;2022-11-20T12:00:53;220.57;;;213.23;;
595;SDS011;19946;49.306;11.350;2022-11-20T12:05:00;185.67;;;179.23;;
595;SDS011;19946;49.306;11.350;2022-11-20T12:14:53;220.23;;;212.87;;
595;SDS011;19946;49.306;11.350;2022-11-20T12:18:00;239.33;;;231.33;;
595;SDS011;19946;49.306;11.350;2022-11-20T12:21:04;273.90;;;264.83;;
595;SDS011;19946;49.306;11.350;2022-11-20T12:27:35;245.80;;;237.70;;
595;SDS011;19946;49.306;11.350;2022-11-20T12:30:42;253.60;;;245.30;;
595;SDS011;19946;49.306;11.350;2022-11-20T12:57:53;314.07;;;303.77;;
595;SDS011;19946;49.306;11.350;2022-11-20T13:01:01;342.27;;;330.97;;
595;SDS011;19946;49.306;11.350;2022-11-20T13:04:55;281.10;;;271.80;;
595;SDS011;19946;49.306;11.350;2022-11-20T13:08:20;289.87;;;280.20;;
595;SDS011;19946;49.306;11.350;2022-11-20T13:18:03;303.63;;;293.33;;
595;SDS011;19946;49.306;11.350;2022-11-20T13:21:17;290.97;;;280.77;;
595;SDS011;19946;49.306;11.350;2022-11-20T13:24:23;295.20;;;284.60;;
595;SDS011;19946;49.306;11.350;2022-11-20T13:31:29;260.67;;;251.03;;
595;SDS011;19946;49.306;11.350;2022-11-20T13:34:33;287.03;;;276.80;;
595;SDS011;19946;49.306;11.350;2022-11-20T13:37:38;364.90;;;351.90;;
595;SDS011;19946;49.306;11.350;2022-11-20T13:40:52;296.27;;;285.73;;
595;SDS011;19946;49.306;11.350;2022-11-20T13:44:05;316.50;;;305.07;;
595;SDS011;19946;49.306;11.350;2022-11-20T13:47:23;262.17;;;252.97;;
595;SDS011;19946;49.306;11.350;2022-11-20T14:01:08;337.90;;;325.83;;
595;SDS011;19946;49.306;11.350;2022-11-20T14:04:14;305.70;;;295.13;;
595;SDS011;19946;49.306;11.350;2022-11-20T14:07:18;349.57;;;337.57;;
595;SDS011;19946;49.306;11.350;2022-11-20T14:10:23;286.63;;;277.00;;
595;SDS011;19946;49.306;11.350;2022-11-20T14:13:27;282.10;;;272.70;;
595;SDS011;19946;49.306;11.350;2022-11-20T14:20:50;265.33;;;256.53;;
595;SDS011;19946;49.306;11.350;2022-11-20T14:32:08;266.70;;;258.00;;
595;SDS011;19946;49.306;11.350;2022-11-20T14:35:14;276.63;;;267.60;;
595;SDS011;19946;49.306;11.350;2022-11-20T14:38:24;276.50;;;267.50;;
595;SDS011;19946;49.306;11.350;2022-11-20T14:41:26;275.80;;;266.70;;
595;SDS011;19946;49.306;11.350;2022-11-20T14:44:31;335.47;;;324.17;;
595;SDS011;19946;49.306;11.350;2022-11-20T14:47:39;301.77;;;291.67;;
595;SDS011;19946;49.306;11.350;2022-11-20T14:50:40;310.23;;;300.03;;
595;SDS011;19946;49.306;11.350;2022-11-20T14:53:41;284.20;;;274.97;;
595;SDS011;19946;49.306;11.350;2022-11-20T14:56:42;271.53;;;262.63;;
595;SDS011;19946;49.306;11.350;2022-11-20T15:00:04;245.13;;;236.83;;
595;SDS011;19946;49.306;11.350;2022-11-20T15:03:14;261.00;;;252.20;;
595;SDS011;19946;49.306;11.350;2022-11-20T15:06:29;295.13;;;285.30;;
595;SDS011;19946;49.306;11.350;2022-11-20T15:09:32;313.50;;;303.03;;
595;SDS011;19946;49.306;11.350;2022-11-20T15:12:36;323.23;;;312.53;;
595;SDS011;19946;49.306;11.350;2022-11-20T15:15:45;373.03;;;360.27;;
595;SDS011;19946;49.306;11.350;2022-11-20T15:18:50;358.97;;;346.87;;
595;SDS011;19946;49.306;11.350;2022-11-20T15:22:04;325.17;;;314.33;;
595;SDS011;19946;49.306;11.350;2022-11-20T15:32:07;303.63;;;293.63;;
595;SDS011;19946;49.306;11.350;2022-11-20T15:35:18;389.37;;;376.07;;
595;SDS011;19946;49.306;11.350;2022-11-20T15:38:18;355.77;;;343.97;;
595;SDS011;19946;49.306;11.350;2022-11-20T15:44:28;292.23;;;282.63;;
595;SDS011;19946;49.306;11.350;2022-11-20T15:47:30;283.03;;;273.73;;
595;SDS011;19946;49.306;11.350;2022-11-20T15:50:35;296.23;;;286.40;;
595;SDS011;19946;49.306;11.350;2022-11-20T15:53:38;264.93;;;256.23;;
595;SDS011;19946;49.306;11.350;2022-11-20T15:56:40;303.47;;;293.43;;
595;SDS011;19946;49.306;11.350;2022-11-20T15:59:40;286.40;;;276.90;;
595;SDS011;19946;49.306;11.350;2022-11-20T16:02:41;312.50;;;302.10;;
595;SDS011;19946;49.306;11.350;2022-11-20T16:05:46;272.00;;;262.80;;
595;SDS011;19946;49.306;11.350;2022-11-20T16:08:46;254.43;;;245.83;;
595;SDS011;19946;49.306;11.350;2022-11-20T16:11:49;261.47;;;252.47;;
595;SDS011;19946;49.306;11.350;2022-11-20T16:14:50;268.13;;;258.87;;
595;SDS011;19946;49.306;11.350;2022-11-20T16:18:18;250.47;;;241.67;;
595;SDS011;19946;49.306;11.350;2022-11-20T16:21:23;455.60;;;439.57;;
595;SDS011;19946;49.306;11.350;2022-11-20T16:24:33;418.37;;;403.93;;
595;SDS011;19946;49.306;11.350;2022-11-20T16:27:45;375.20;;;362.50;;
595;SDS011;19946;49.306;11.350;2022-11-20T16:30:46;387.40;;;374.17;;
595;SDS011;19946;49.306;11.350;2022-11-20T16:37:11;302.03;;;290.93;;
595;SDS011;19946;49.306;11.350;2022-11-20T16:44:41;355.80;;;343.80;;
595;SDS011;19946;49.306;11.350;2022-11-20T16:47:45;403.17;;;389.30;;
595;SDS011;19946;49.306;11.350;2022-11-20T16:50:47;407.30;;;393.20;;
595;SDS011;19946;49.306;11.350;2022-11-20T16:53:49;422.67;;;407.50;;
595;SDS011;19946;49.306;11.350;2022-11-20T16:56:50;409.87;;;395.17;;
595;SDS011;19946;49.306;11.350;2022-11-20T16:59:52;362.90;;;349.73;;
595;SDS011;19946;49.306;11.350;2022-11-20T17:02:52;318.60;;;306.90;;
595;SDS011;19946;49.306;11.350;2022-11-20T17:05:53;329.27;;;317.03;;
595;SDS011;19946;49.306;11.350;2022-11-20T17:08:54;277.90;;;267.60;;
595;SDS011;19946;49.306;11.350;2022-11-20T17:11:55;325.03;;;312.73;;
595;SDS011;19946;49.306;11.350;2022-11-20T17:14:55;431.20;;;414.57;;
595;SDS011;19946;49.306;11.350;2022-11-20T17:17:56;425.13;;;408.83;;
595;SDS011;19946;49.306;11.350;2022-11-20T17:20:56;395.30;;;380.10;;
595;SDS011;19946;49.306;11.350;2022-11-20T17:24:00;373.03;;;358.73;;
595;SDS011;19946;49.306;11.350;2022-11-20T17:27:05;432.47;;;416.07;;
595;SDS011;19946;49.306;11.350;2022-11-20T17:30:06;500.80;;;482.60;;
595;SDS011;19946;49.306;11.350;2022-11-20T17:33:06;543.43;;;524.33;;
595;SDS011;19946;49.306;11.350;2022-11-20T17:36:07;492.20;;;474.80;;
595;SDS011;19946;49.306;11.350;2022-11-20T17:39:13;480.63;;;463.27;;
595;SDS011;19946;49.306;11.350;2022-11-20T17:42:17;437.63;;;421.47;;
595;SDS011;19946;49.306;11.350;2022-11-20T17:45:26;547.57;;;528.33;;
595;SDS011;19946;49.306;11.350;2022-11-20T17:48:29;529.43;;;510.83;;
595;SDS011;19946;49.306;11.350;2022-11-20T17:54:41;523.03;;;504.33;;
595;SDS011;19946;49.306;11.350;2022-11-20T17:57:41;508.43;;;490.43;;
595;SDS011;19946;49.306;11.350;2022-11-20T18:01:03;540.77;;;521.73;;
595;SDS011;19946;49.306;11.350;2022-11-20T18:04:04;557.87;;;538.57;;
595;SDS011;19946;49.306;11.350;2022-11-20T18:07:05;536.03;;;517.53;;
595;SDS011;19946;49.306;11.350;2022-11-20T18:10:06;535.30;;;516.63;;
595;SDS011;19946;49.306;11.350;2022-11-20T18:13:08;534.97;;;516.43;;
595;SDS011;19946;49.306;11.350;2022-11-20T18:16:08;529.03;;;510.73;;
595;SDS011;19946;49.306;11.350;2022-11-20T18:19:09;521.50;;;503.37;;
595;SDS011;19946;49.306;11.350;2022-11-20T18:22:12;490.07;;;472.77;;
595;SDS011;19946;49.306;11.350;2022-11-20T18:25:14;533.13;;;514.33;;
595;SDS011;19946;49.306;11.350;2022-11-20T18:28:14;567.37;;;547.33;;
595;SDS011;19946;49.306;11.350;2022-11-20T18:31:17;549.17;;;529.83;;
595;SDS011;19946;49.306;11.350;2022-11-20T18:34:17;518.40;;;500.73;;
595;SDS011;19946;49.306;11.350;2022-11-20T18:37:19;525.43;;;507.67;;
595;SDS011;19946;49.306;11.350;2022-11-20T18:40:19;483.00;;;466.60;;
595;SDS011;19946;49.306;11.350;2022-11-20T18:43:19;564.17;;;544.47;;
595;SDS011;19946;49.306;11.350;2022-11-20T18:46:38;488.77;;;472.23;;
595;SDS011;19946;49.306;11.350;2022-11-20T18:49:40;505.03;;;487.83;;
595;SDS011;19946;49.306;11.350;2022-11-20T18:52:41;513.97;;;496.33;;
595;SDS011;19946;49.306;11.350;2022-11-20T18:55:46;532.90;;;514.70;;
595;SDS011;19946;49.306;11.350;2022-11-20T18:58:46;556.70;;;537.33;;
595;SDS011;19946;49.306;11.350;2022-11-20T19:01:47;540.67;;;521.57;;
595;SDS011;19946;49.306;11.350;2022-11-20T19:04:48;472.50;;;456.70;;
595;SDS011;19946;49.306;11.350;2022-11-20T19:07:48;465.07;;;449.83;;
595;SDS011;19946;49.306;11.350;2022-11-20T19:10:50;427.23;;;413.20;;
595;SDS011;19946;49.306;11.350;2022-11-20T19:13:51;449.30;;;434.47;;
595;SDS011;19946;49.306;11.350;2022-11-20T19:16:52;443.40;;;428.80;;
595;SDS011;19946;49.306;11.350;2022-11-20T19:26:37;434.00;;;420.00;;
595;SDS011;19946;49.306;11.350;2022-11-20T19:32:54;409.40;;;394.63;;
595;SDS011;19946;49.306;11.350;2022-11-20T19:49:21;371.73;;;359.20;;
595;SDS011;19946;49.306;11.350;2022-11-20T19:58:55;441.83;;;426.03;;
595;SDS011;19946;49.306;11.350;2022-11-20T20:09:05;385.10;;;371.80;;
595;SDS011;19946;49.306;11.350;2022-11-20T20:12:10;393.90;;;380.23;;
595;SDS011;19946;49.306;11.350;2022-11-20T20:42:22;372.80;;;359.37;;
595;SDS011;19946;49.306;11.350;2022-11-20T20:45:23;417.43;;;402.67;;
595;SDS011;19946;49.306;11.350;2022-11-20T20:58:13;295.03;;;285.23;;
595;SDS011;19946;49.306;11.350;2022-11-20T21:04:30;278.70;;;269.17;;
595;SDS011;19946;49.306;11.350;2022-11-20T21:07:31;289.53;;;279.63;;
595;SDS011;19946;49.306;11.350;2022-11-20T21:10:31;213.03;;;205.60;;
